Time;durP1;ratioP1;P1;durP2;ratioP2;P2;SDS_P1;SDS_P2;PMS_P1;PMS_P2;Temp;Humidity;BMP_temperature;BMP_pressure;BME280_temperature;BME280_humidity;BME280_pressure;Samples;Min_cycle;Max_cycle;Signal;HPM_P1;HPM_P2
2022/05/04 00:00:00;;;;;;;5.78;2.17;;;;;;;;;;5053914;28;20120;-67
2022/05/04 00:02:26;;;;;;;5.75;2.28;;;;;;;;;;5072493;28;20599;-68
2022/05/04 00:04:52;;;;;;;13.57;3.20;;;;;;;;;;5038035;28;20135;-67
2022/05/04 00:07:18;;;;;;;7.20;1.95;;;;;;;;;;5072234;28;20051;-68
2022/05/04 00:09:43;;;;;;;7.82;2.10;;;;;;;;;;5053579;28;20464;-68
2022/05/04 00:12:10;;;;;;;7.28;2.15;;;;;;;;;;5054383;28;20045;-69
2022/05/04 00:14:36;;;;;;;5.45;2.13;;;;;;;;;;5054088;28;20051;-68
2022/05/04 00:17:02;;;;;;;11.90;2.08;;;;;;;;;;5054262;28;20438;-69
2022/05/04 00:19:28;;;;;;;11.98;2.40;;;;;;;;;;5071321;28;20113;-70
2022/05/04 00:21:54;;;;;;;6.63;2.72;;;;;;;;;;5054124;28;20510;-68
2022/05/04 00:24:20;;;;;;;10.18;2.75;;;;;;;;;;5037355;28;20417;-68
2022/05/04 00:26:46;;;;;;;8.80;2.03;;;;;;;;;;5053878;28;20059;-68
2022/05/04 00:29:12;;;;;;;12.85;2.22;;;8.90;99.90;;;;;;5053278;28;20040;-67
2022/05/04 00:31:38;;;;;;;7.45;2.03;;;;;;;;;;5072112;28;20048;-68
2022/05/04 00:34:04;;;;;;;6.30;2.03;;;;;;;;;;5037105;28;20037;-68
2022/05/04 00:36:31;;;;;;;8.75;2.22;;;;;;;;;;5071979;28;20044;-68
2022/05/04 00:38:57;;;;;;;10.38;2.05;;;;;;;;;;5071519;28;20041;-69
2022/05/04 00:41:23;;;;;;;9.85;2.38;;;;;;;;;;5053563;28;20048;-71
2022/05/04 00:43:53;;;;;;;18.15;2.63;;;8.80;99.90;;;;;;5054047;28;20494;-71
2022/05/04 00:46:19;;;;;;;11.00;2.22;;;;;;;;;;5069728;28;20075;-68
2022/05/04 00:48:45;;;;;;;11.95;2.83;;;;;;;;;;5053721;28;20044;-68
2022/05/04 00:51:11;;;;;;;12.07;2.70;;;;;;;;;;5071111;28;20045;-68
2022/05/04 00:53:39;;;;;;;8.82;1.83;;;8.70;99.90;;;;;;5053917;28;20050;-68
2022/05/04 00:56:06;;;;;;;6.97;1.77;;;8.90;99.90;;;;;;5053602;28;20437;-68
2022/05/04 01:01:17;;;;;;;8.95;2.08;;;8.80;99.90;;;;;;5071069;28;20059;-68
2022/05/04 01:03:43;;;;;;;11.38;3.10;;;;;;;;;;5053936;28;20044;-68
2022/05/04 01:06:09;;;;;;;6.45;2.47;;;;;;;;;;5072045;28;20043;-68
2022/05/04 01:08:35;;;;;;;6.03;1.70;;;;;;;;;;5054494;28;20037;-68
2022/05/04 01:11:01;;;;;;;10.23;2.47;;;;;;;;;;5053331;28;20402;-68
2022/05/04 01:13:27;;;;;;;12.95;2.50;;;;;;;;;;5053363;28;20044;-68
2022/05/04 01:15:53;;;;;;;4.63;2.15;;;;;;;;;;5053396;28;20109;-69
2022/05/04 01:18:20;;;;;;;10.60;2.80;;;;;;;;;;5071250;28;20032;-69
2022/05/04 01:20:45;;;;;;;8.00;1.95;;;8.70;99.90;;;;;;5052546;28;20036;-68
2022/05/04 01:23:11;;;;;;;7.18;2.00;;;;;;;;;;5069943;28;20086;-68
2022/05/04 01:25:37;;;;;;;7.70;1.73;;;;;;;;;;5071286;28;20094;-69
2022/05/04 01:28:04;;;;;;;6.85;2.20;;;;;;;;;;5053466;28;20092;-71
2022/05/04 01:30:34;;;;;;;8.50;2.30;;;;;;;;;;5070271;28;20036;-69
2022/05/04 01:33:00;;;;;;;10.65;2.40;;;8.80;99.90;;;;;;5071342;28;20086;-68
2022/05/04 01:35:26;;;;;;;11.63;2.30;;;;;;;;;;5036350;28;20072;-69
2022/05/04 01:37:52;;;;;;;9.57;2.30;;;;;;;;;;5071325;28;20076;-70
2022/05/04 01:40:18;;;;;;;7.80;1.98;;;;;;;;;;5035676;28;20040;-70
2022/05/04 01:42:44;;;;;;;14.70;2.97;;;;;;;;;;5053408;28;20430;-70
2022/05/04 01:45:10;;;;;;;6.35;2.40;;;8.80;99.90;;;;;;5070900;28;20045;-68
2022/05/04 01:47:36;;;;;;;12.13;3.17;;;8.70;99.90;;;;;;5053107;28;20068;-68
2022/05/04 01:50:03;;;;;;;6.47;3.10;;;8.80;99.90;;;;;;5070252;28;20529;-68
2022/05/04 01:52:29;;;;;;;11.63;2.92;;;;;;;;;;5071126;28;20076;-68
2022/05/04 01:54:55;;;;;;;9.63;2.38;;;8.90;99.90;;;;;;5070859;28;20181;-68
2022/05/04 01:57:21;;;;;;;7.30;2.40;;;8.90;99.90;;;;;;5054347;28;20148;-68
2022/05/04 01:59:47;;;;;;;8.70;2.28;;;;;;;;;;5056138;28;20136;-70
2022/05/04 02:02:13;;;;;;;8.95;2.38;;;;;;;;;;5056836;28;20505;-70
2022/05/04 02:04:40;;;;;;;9.07;2.85;;;8.70;99.90;;;;;;5074632;28;20507;-70
2022/05/04 02:07:08;;;;;;;8.48;1.85;;;8.70;99.90;;;;;;5074724;28;20115;-68
2022/05/04 02:09:35;;;;;;;15.27;2.55;;;8.70;99.90;;;;;;5074023;28;20045;-67
2022/05/04 02:12:02;;;;;;;18.98;3.15;;;8.70;99.90;;;;;;5074428;28;20051;-68
2022/05/04 02:14:28;;;;;;;11.05;3.35;;;8.60;99.90;;;;;;5074234;28;20059;-68
2022/05/04 02:16:54;;;;;;;13.48;4.90;;;;;;;;;;5073056;28;20494;-68
2022/05/04 02:19:20;;;;;;;11.32;4.70;;;;;;;;;;5055966;28;20045;-67
2022/05/04 02:21:46;;;;;;;9.57;2.65;;;;;;;;;;5074528;28;20566;-68
2022/05/04 02:24:12;;;;;;;8.10;3.17;;;;;;;;;;5056629;28;20040;-67
2022/05/04 02:26:38;;;;;;;7.00;2.35;;;;;;;;;;5056326;28;20624;-68
2022/05/04 02:29:03;;;;;;;9.35;2.92;;;;;;;;;;5055745;28;20076;-68
2022/05/04 02:31:29;;;;;;;4.43;1.95;;;8.70;99.90;;;;;;5056355;28;20040;-68
2022/05/04 02:33:55;;;;;;;13.30;2.88;;;;;;;;;;5039569;28;20041;-70
2022/05/04 02:39:05;;;;;;;10.50;2.50;;;8.80;99.90;;;;;;5055800;28;20481;-67
2022/05/04 02:41:32;;;;;;;9.75;3.00;;;;;;;;;;5074041;28;20068;-68
2022/05/04 02:44:00;;;;;;;11.77;4.22;;;;;;;;;;5056228;28;20044;-68
2022/05/04 02:46:28;;;;;;;6.93;2.55;;;8.70;99.90;;;;;;5056042;28;20044;-69
2022/05/04 02:48:54;;;;;;;11.13;2.50;;;;;;;;;;5055661;28;20044;-69
2022/05/04 02:51:20;;;;;;;9.80;2.75;;;;;;;;;;5055230;28;20466;-70
2022/05/04 02:53:46;;;;;;;8.27;2.63;;;;;;;;;;5056003;28;20119;-67
2022/05/04 02:56:15;;;;;;;14.50;2.47;;;;;;;;;;5080242;22;20113;-69
2022/05/04 02:58:41;;;;;;;11.32;2.92;;;;;;;;;;5055775;28;20048;-71
2022/05/04 03:04:08;;;;;;;;;;;8.50;99.90;;;;;;5056550;28;20070;-71
2022/05/04 03:06:39;;;;;;;9.00;2.83;;;8.60;99.90;;;;;;5039408;28;20423;-70
2022/05/04 03:09:06;;;;;;;7.95;3.08;;;;;;;;;;5037844;28;20089;-72
2022/05/04 03:14:18;;;;;;;11.82;2.95;;;8.70;99.90;;;;;;5055620;28;20052;-71
2022/05/04 03:16:44;;;;;;;7.75;2.38;;;8.50;99.90;;;;;;5073610;28;20078;-71
2022/05/04 03:19:10;;;;;;;8.77;2.03;;;;;;;;;;5054869;28;20118;-70
2022/05/04 03:21:36;;;;;;;13.07;2.95;;;8.70;99.90;;;;;;5055937;28;20089;-72
2022/05/04 03:24:02;;;;;;;10.25;2.78;;;;;;;;;;5073454;28;20546;-71
2022/05/04 03:26:28;;;;;;;8.43;2.38;;;8.60;99.90;;;;;;5055531;28;20044;-70
2022/05/04 03:28:55;;;;;;;7.93;2.88;;;;;;;;;;5055331;28;20036;-70
2022/05/04 03:31:21;;;;;;;8.82;2.53;;;8.70;99.90;;;;;;5055203;28;20052;-72
2022/05/04 03:33:47;;;;;;;13.13;3.20;;;;;;;;;;5055240;28;20036;-72
2022/05/04 03:36:12;;;;;;;12.07;2.85;;;8.70;99.90;;;;;;5055379;28;20086;-70
2022/05/04 03:38:38;;;;;;;9.93;2.83;;;;;;;;;;5055193;28;20037;-71
2022/05/04 03:41:04;;;;;;;8.63;2.70;;;8.50;99.90;;;;;;5053349;28;20041;-71
2022/05/04 03:43:30;;;;;;;7.15;2.35;;;;;;;;;;5055208;28;20045;-72
2022/05/04 03:46:10;;;;;;;10.75;2.80;;;8.60;99.90;;;;;;5038461;28;20123;-70
2022/05/04 03:48:35;;;;;;;11.52;2.55;;;8.70;99.90;;;;;;5073120;28;20093;-72
2022/05/04 03:51:02;;;;;;;6.28;2.15;;;;;;;;;;5054598;28;20044;-72
2022/05/04 03:53:27;;;;;;;10.60;2.65;;;8.50;99.90;;;;;;5038456;28;20108;-71
2022/05/04 03:55:53;;;;;;;11.32;2.67;;;8.40;99.90;;;;;;5054794;28;20482;-72
2022/05/04 03:58:19;;;;;;;7.70;2.65;;;;;;;;;;5054857;28;20128;-72
2022/05/04 04:00:45;;;;;;;13.23;2.38;;;;;;;;;;5054193;28;20406;-72
2022/05/04 04:03:10;;;;;;;8.18;2.42;;;8.60;99.90;;;;;;5054823;28;20044;-72
2022/05/04 04:05:36;;;;;;;8.18;2.65;;;;;;;;;;5072731;28;20078;-72
2022/05/04 04:08:02;;;;;;;11.98;2.80;;;;;;;;;;5072720;28;20040;-72
2022/05/04 04:10:28;;;;;;;7.47;3.97;;;;;;;;;;5037578;28;20039;-72
2022/05/04 04:12:53;;;;;;;14.85;5.07;;;8.50;99.90;;;;;;5054651;28;20041;-72
2022/05/04 04:15:19;;;;;;;9.32;4.50;;;8.60;99.90;;;;;;5072536;28;20524;-72
2022/05/04 04:17:46;;;;;;;6.13;2.75;;;8.50;99.90;;;;;;5054613;28;20119;-71
2022/05/04 04:22:55;;;;;;;6.85;1.85;;;8.50;99.90;;;;;;5072413;28;20425;-72
2022/05/04 04:25:21;;;;;;;11.02;2.45;;;;;;;;;;5054300;28;20128;-72
2022/05/04 04:27:47;;;;;;;8.38;1.95;;;;;;;;;;5054878;28;20143;-72
2022/05/04 04:30:13;;;;;;;7.07;2.13;;;8.50;99.90;;;;;;5037166;28;20101;-72
2022/05/04 04:32:39;;;;;;;8.45;2.58;;;8.50;99.90;;;;;;5072302;28;20040;-73
2022/05/04 04:35:05;;;;;;;7.25;1.92;;;8.60;99.90;;;;;;5054132;28;20040;-71
2022/05/04 04:37:30;;;;;;;10.02;2.78;;;8.60;99.90;;;;;;5072059;28;20040;-72
2022/05/04 04:39:56;;;;;;;7.63;2.50;;;8.50;99.90;;;;;;5036693;28;20036;-72
2022/05/04 04:42:22;;;;;;;13.70;2.88;;;;;;;;;;5054167;28;20510;-71
2022/05/04 04:44:48;;;;;;;13.57;3.55;;;;;;;;;;5053959;28;20045;-72
2022/05/04 04:47:13;;;;;;;10.63;3.15;;;8.70;99.90;;;;;;5054209;28;20079;-72
2022/05/04 04:49:39;;;;;;;9.35;3.08;;;8.60;99.90;;;;;;5053370;28;20036;-71
2022/05/04 04:52:05;;;;;;;13.07;2.30;;;;;;;;;;5037412;28;20044;-72
2022/05/04 04:54:31;;;;;;;9.73;2.30;;;;;;;;;;5037464;28;20048;-71
2022/05/04 04:56:57;;;;;;;9.02;3.42;;;;;;;;;;5053829;28;20075;-72
2022/05/04 04:59:22;;;;;;;11.40;2.55;;;;;;;;;;5071205;28;20093;-71
2022/05/04 05:01:48;;;;;;;9.73;2.00;;;8.60;99.90;;;;;;5037190;28;20452;-72
2022/05/04 05:04:14;;;;;;;11.57;3.97;;;8.60;99.90;;;;;;5071837;28;20040;-72
2022/05/04 05:06:39;;;;;;;6.05;1.90;;;;;;;;;;5071601;28;20050;-72
2022/05/04 05:09:05;;;;;;;11.20;2.95;;;;;;;;;;5053407;28;20087;-72
2022/05/04 05:11:31;;;;;;;8.85;2.30;;;;;;;;;;5053555;28;20498;-72
2022/05/04 05:16:41;;;;;;;7.65;2.65;;;8.80;99.90;;;;;;5053487;28;20181;-72
2022/05/04 05:19:07;;;;;;;7.68;3.05;;;8.70;99.90;;;;;;5052763;28;20115;-70
2022/05/04 05:21:32;;;;;;;10.18;2.03;;;8.70;99.90;;;;;;5053489;28;20040;-72
2022/05/04 05:23:59;;;;;;;7.63;2.42;;;;;;;;;;5053500;28;20044;-72
2022/05/04 05:26:24;;;;;;;13.60;4.82;;;;;;;;;;5053689;28;20449;-72
2022/05/04 05:28:50;;;;;;;10.05;3.45;;;;;;;;;;5047635;28;20052;-71
2022/05/04 05:31:16;;;;;;;20.23;3.35;;;;;;;;;;5051787;28;20063;-72
2022/05/04 05:33:45;;;;;;;7.55;3.00;;;;;;;;;;5056427;28;20036;-72
2022/05/04 05:36:11;;;;;;;11.43;2.88;;;9.00;99.90;;;;;;5072616;28;20044;-72
2022/05/04 05:38:36;;;;;;;11.48;3.38;;;8.70;99.90;;;;;;5056800;28;20398;-72
2022/05/04 05:41:02;;;;;;;13.85;2.92;;;8.80;99.90;;;;;;5056176;28;20037;-71
2022/05/04 05:43:29;;;;;;;9.35;2.03;;;;;;;;;;5056798;28;20045;-72
2022/05/04 05:45:54;;;;;;;12.95;2.97;;;8.80;99.90;;;;;;5074355;28;20044;-72
2022/05/04 05:48:20;;;;;;;11.23;3.78;;;8.80;99.90;;;;;;5074537;28;20045;-72
2022/05/04 05:50:47;;;;;;;3.90;2.10;;;8.60;99.90;;;;;;5055647;28;20036;-72
2022/05/04 05:53:14;;;;;;;9.35;2.63;;;8.70;99.90;;;;;;5074384;28;20136;-72
2022/05/04 05:55:40;;;;;;;14.70;2.78;;;;;;;;;;5073218;28;20044;-72
2022/05/04 05:58:06;;;;;;;11.23;2.53;;;8.80;99.90;;;;;;5074407;28;20111;-72
2022/05/04 06:00:32;;;;;;;10.00;2.85;;;;;;;;;;5073612;28;20148;-72
2022/05/04 06:02:58;;;;;;;11.95;4.53;;;;;;;;;;5074019;28;20524;-72
2022/05/04 06:05:23;;;;;;;12.88;3.80;;;9.00;99.90;;;;;;5056095;28;20124;-70
2022/05/04 06:07:49;;;;;;;15.77;5.00;;;8.90;99.90;;;;;;5072147;28;20071;-72
2022/05/04 06:10:15;;;;;;;9.77;2.92;;;9.00;99.90;;;;;;5055726;28;20486;-72
2022/05/04 06:12:41;;;;;;;9.27;3.03;;;;;;;;;;5056171;28;20048;-72
2022/05/04 06:15:08;;;;;;;5.82;2.58;;;9.20;99.90;;;;;;5072216;28;20045;-72
2022/05/04 06:17:34;;;;;;;13.80;3.05;;;9.00;99.90;;;;;;5055930;28;20398;-72
2022/05/04 06:20:00;;;;;;;10.65;2.55;;;;;;;;;;5055214;28;20068;-70
2022/05/04 06:22:25;;;;;;;8.00;2.38;;;8.90;99.90;;;;;;5044139;28;20498;-73
2022/05/04 06:24:51;;;;;;;14.88;2.72;;;;;;;;;;5072420;28;20041;-73
2022/05/04 06:27:17;;;;;;;7.35;2.08;;;;;;;;;;5072513;28;20044;-72
2022/05/04 06:35:12;;;;;;;7.53;1.85;;;9.30;99.90;;;;;;5089211;28;20471;-70
2022/05/04 06:37:39;;;;;;;9.15;2.60;;;;;;;;;;5054688;28;20036;-73
2022/05/04 06:40:05;;;;;;;9.13;2.05;;;9.20;99.90;;;;;;5037279;28;20041;-73
2022/05/04 06:42:31;;;;;;;8.57;2.20;;;9.30;99.90;;;;;;5073382;28;20036;-71
2022/05/04 06:44:57;;;;;;;10.13;3.60;;;9.40;99.90;;;;;;5054925;28;20037;-71
2022/05/04 06:47:23;;;;;;;8.57;2.10;;;;;;;;;;5073292;28;20051;-71
2022/05/04 06:49:49;;;;;;;3.97;1.70;;;;;;;;;;5055722;28;20044;-71
2022/05/04 06:52:15;;;;;;;8.65;2.80;;;;;;;;;;5074290;28;20068;-72
2022/05/04 06:54:40;;;;;;;6.82;2.47;;;9.60;99.90;;;;;;5077920;28;20048;-73
2022/05/04 06:57:06;;;;;;;9.25;1.90;;;9.70;99.90;;;;;;5039254;28;20055;-72
2022/05/04 06:59:32;;;;;;;7.20;2.15;;;;;;;;;;5038663;28;20037;-73
2022/05/04 07:01:58;;;;;;;9.55;2.58;;;;;;;;;;5056333;28;20041;-73
2022/05/04 07:04:24;;;;;;;10.65;2.30;;;;;;;;;;5056106;28;20043;-71
2022/05/04 07:06:49;;;;;;;7.05;1.55;;;9.40;99.90;;;;;;5055920;28;20052;-71
2022/05/04 07:09:15;;;;;;;12.60;3.22;;;9.80;99.90;;;;;;5053551;28;20083;-71
2022/05/04 07:11:40;;;;;;;7.25;1.80;;;10.00;99.90;;;;;;5039424;28;20157;-72
2022/05/04 07:14:06;;;;;;;9.10;1.70;;;10.10;99.90;;;;;;5074028;28;20141;-72
2022/05/04 07:16:32;;;;;;;7.07;1.67;;;;;;;;;;5055898;28;20144;-72
2022/05/04 07:18:57;;;;;;;9.30;2.50;;;10.40;99.90;;;;;;5038810;28;20609;-72
2022/05/04 07:21:23;;;;;;;6.45;2.25;;;10.50;99.90;;;;;;5073303;28;20452;-73
2022/05/04 07:23:48;;;;;;;7.28;1.90;;;10.40;99.90;;;;;;5073731;28;20090;-72
2022/05/04 07:26:14;;;;;;;12.70;2.53;;;;;;;;;;5055762;28;20089;-72
2022/05/04 07:28:40;;;;;;;11.30;2.60;;;10.40;99.90;;;;;;5055741;28;20043;-73
2022/05/04 07:31:06;;;;;;;5.40;1.70;;;;;;;;;;5072822;28;20036;-72
2022/05/04 07:33:31;;;;;;;5.93;2.00;;;10.30;99.90;;;;;;5055583;28;20505;-72
2022/05/04 07:35:57;;;;;;;7.15;2.50;;;;;;;;;;5073089;28;20459;-71
2022/05/04 07:38:23;;;;;;;5.80;2.53;;;;;;;;;;5073242;28;20073;-72
2022/05/04 07:43:33;;;;;;;4.47;1.65;;;10.50;99.90;;;;;;5055290;28;20047;-71
2022/05/04 07:45:59;;;;;;;5.47;1.73;;;10.40;99.90;;;;;;5038362;28;20040;-71
2022/05/04 07:48:25;;;;;;;11.80;2.42;;;10.50;99.90;;;;;;5038425;28;20048;-71
2022/05/04 07:50:51;;;;;;;8.85;2.08;;;;;;;;;;5072182;28;20051;-72
2022/05/04 07:53:16;;;;;;;12.30;2.10;;;10.20;99.90;;;;;;5052950;28;20039;-68
2022/05/04 07:55:42;;;;;;;7.15;2.10;;;;;;;;;;5044066;28;20126;-73
2022/05/04 07:58:08;;;;;;;7.70;1.85;;;10.50;99.90;;;;;;5038037;28;20032;-72
2022/05/04 08:06:02;;;;;;;10.95;2.40;;;10.00;99.90;;;;;;5069871;28;20131;-72
2022/05/04 08:08:27;;;;;;;8.43;2.03;;;10.10;99.90;;;;;;5037926;28;20545;-72
2022/05/04 08:10:53;;;;;;;7.07;2.00;;;;;;;;;;5055732;28;20044;-73
2022/05/04 08:13:19;;;;;;;10.20;3.13;;;;;;;;;;5071224;28;20036;-71
2022/05/04 08:15:46;;;;;;;9.85;2.35;;;10.60;99.90;;;;;;5070850;28;20048;-73
2022/05/04 08:18:12;;;;;;;11.25;2.40;;;;;;;;;;5070944;28;20044;-72
2022/05/04 08:20:38;;;;;;;6.53;1.80;;;11.40;99.90;;;;;;5070205;28;20040;-72
2022/05/04 08:23:04;;;;;;;4.38;1.80;;;;;;;;;;5072376;28;20414;-72
2022/05/04 08:25:31;;;;;;;11.35;2.50;;;10.80;99.90;;;;;;5068199;28;20044;-71
2022/05/04 08:27:57;;;;;;;8.85;2.45;;;;;;;;;;5054161;28;20039;-72
2022/05/04 08:30:23;;;;;;;5.65;1.83;;;11.00;99.90;;;;;;5071274;28;20417;-72
2022/05/04 08:32:49;;;;;;;9.95;2.55;;;10.90;99.90;;;;;;5054363;28;20044;-72
2022/05/04 08:35:15;;;;;;;6.80;2.30;;;11.20;99.90;;;;;;5054024;28;20044;-72
2022/05/04 08:37:41;;;;;;;5.97;2.00;;;11.20;99.90;;;;;;5037885;28;20497;-71
2022/05/04 08:40:08;;;;;;;8.93;2.63;;;10.80;99.90;;;;;;5053097;28;20046;-72
2022/05/04 08:42:40;;;;;;;9.73;2.60;;;10.90;99.60;;;;;;5071814;28;20047;-72
2022/05/04 08:45:06;;;;;;;6.65;2.28;;;10.00;99.90;;;;;;5047042;28;20036;-72
2022/05/04 08:47:32;;;;;;;10.77;2.90;;;10.60;99.90;;;;;;5059521;28;20123;-71
2022/05/04 08:49:58;;;;;;;8.52;2.05;;;;;;;;;;5086553;28;20122;-72
2022/05/04 08:52:27;;;;;;;7.80;2.30;;;10.40;99.90;;;;;;5069679;28;20044;-69
2022/05/04 08:54:54;;;;;;;5.43;1.48;;;10.70;99.90;;;;;;5061086;28;20032;-71
2022/05/04 08:57:20;;;;;;;7.07;2.30;;;10.70;99.90;;;;;;5058234;28;20050;-72
2022/05/04 08:59:46;;;;;;;8.52;1.88;;;;;;;;;;5073060;28;20137;-72
2022/05/04 09:02:13;;;;;;;5.78;1.95;;;;;;;;;;5091954;28;20589;-72
2022/05/04 09:04:42;;;;;;;9.00;2.60;;;11.30;99.30;;;;;;5072401;28;20391;-73
2022/05/04 09:07:25;;;;;;;4.85;2.00;;;11.20;99.90;;;;;;5091320;28;20406;-72
2022/05/04 09:09:51;;;;;;;7.95;2.20;;;;;;;;;;5072913;28;20048;-72
2022/05/04 09:12:17;;;;;;;12.30;2.13;;;11.60;99.30;;;;;;5091800;28;20040;-73
2022/05/04 09:14:44;;;;;;;7.82;2.22;;;11.40;99.10;;;;;;5073623;28;20043;-73
2022/05/04 09:17:10;;;;;;;6.50;1.90;;;11.50;99.60;;;;;;5073501;28;20093;-72
2022/05/04 09:19:37;;;;;;;10.40;2.20;;;;;;;;;;5056013;28;20082;-70
2022/05/04 09:22:03;;;;;;;8.80;2.15;;;;;;;;;;5073572;28;20048;-70
2022/05/04 09:24:32;;;;;;;5.68;2.30;;;10.90;99.40;;;;;;5056726;28;20048;-70
2022/05/04 09:26:58;;;;;;;5.75;2.00;;;;;;;;;;5072332;28;20135;-69
2022/05/04 09:29:35;;;;;;;5.38;2.10;;;11.80;98.60;;;;;;5052128;28;20040;-71
2022/05/04 09:32:11;;;;;;;6.45;2.13;;;11.90;99.10;;;;;;5086736;28;20046;-71
2022/05/04 09:34:36;;;;;;;4.55;1.80;;;12.00;99.40;;;;;;5073347;28;20545;-70
2022/05/04 09:45:37;;;;;;;8.95;2.55;;;12.50;99.90;;;;;;5030843;28;20047;-69
2022/05/04 09:48:04;;;;;;;5.93;2.30;;;13.00;99.80;;;;;;5070860;28;20037;-69
2022/05/04 09:50:37;;;;;;;5.50;2.60;;;13.00;98.60;;;;;;5051899;28;20048;-70
2022/05/04 09:53:02;;;;;;;7.65;2.38;;;12.70;99.50;;;;;;5049141;28;20075;-70
2022/05/04 09:55:28;;;;;;;8.05;3.45;;;12.60;99.20;;;;;;5052499;28;20455;-71
2022/05/04 09:57:55;;;;;;;9.50;2.17;;;12.80;98.60;;;;;;5036307;28;20040;-70
2022/05/04 10:00:24;;;;;;;7.32;2.05;;;12.90;99.30;;;;;;5052214;28;20387;-71
2022/05/04 10:02:52;;;;;;;9.15;2.50;;;12.50;98.30;;;;;;5035808;28;20187;-73
2022/05/04 10:05:19;;;;;;;7.47;2.40;;;11.90;99.20;;;;;;5052434;28;20041;-71
2022/05/04 10:07:47;;;;;;;9.30;2.50;;;12.40;99.10;;;;;;5052539;28;20490;-72
2022/05/04 10:10:18;;;;;;;5.90;2.38;;;11.80;99.60;;;;;;5052002;28;20040;-71
2022/05/04 10:12:44;;;;;;;8.10;2.60;;;11.50;99.60;;;;;;5052991;28;20041;-71
2022/05/04 10:15:15;;;;;;;5.80;2.53;;;12.10;99.40;;;;;;5052611;28;20120;-69
2022/05/04 10:17:53;;;;;;;9.68;2.67;;;12.20;98.20;;;;;;5070668;28;20047;-71
2022/05/04 10:20:22;;;;;;;9.68;3.00;;;12.80;98.70;;;;;;5073743;28;20111;-71
2022/05/04 10:22:51;;;;;;;7.60;2.85;;;12.70;99.40;;;;;;5056322;28;20072;-70
2022/05/04 10:25:17;;;;;;;5.95;2.35;;;12.80;99.00;;;;;;5074429;28;20047;-70
2022/05/04 10:27:43;;;;;;;8.23;3.67;;;12.90;99.00;;;;;;5074302;28;20080;-71
2022/05/04 10:33:09;;;;;;;8.55;2.45;;;12.90;98.00;;;;;;5056225;28;20052;-71
2022/05/04 10:35:43;;;;;;;13.32;2.78;;;13.10;98.70;;;;;;5056061;28;20036;-71
2022/05/04 10:38:30;;;;;;;7.45;2.55;;;13.50;99.00;;;;;;5067703;28;20040;-71
2022/05/04 10:41:06;;;;;;;10.18;2.72;;;13.30;98.10;;;;;;5077788;28;20127;-71
2022/05/04 10:43:47;;;;;;;7.95;2.53;;;13.60;99.00;;;;;;5070125;28;20051;-68
2022/05/04 10:46:13;;;;;;;5.35;2.05;;;;;;;;;;5069968;28;20040;-72
2022/05/04 10:49:02;;;;;;;9.57;3.08;;;13.70;98.30;;;;;;5032984;28;20564;-70
2022/05/04 10:51:30;;;;;;;7.90;2.72;;;13.80;98.00;;;;;;5045547;28;20111;-71
2022/05/04 10:54:09;;;;;;;9.68;3.50;;;13.40;98.00;;;;;;5033572;28;20079;-71
2022/05/04 10:56:55;;;;;;;10.82;3.03;;;13.50;98.20;;;;;;5089859;28;20310;-71
2022/05/04 10:59:34;;;;;;;11.00;3.33;;;13.80;97.90;;;;;;5071153;28;20391;-72
2022/05/04 11:02:09;;;;;;;9.27;2.35;;;14.20;98.40;;;;;;5072021;28;20538;-70
2022/05/04 11:04:35;;;;;;;5.63;2.03;;;14.60;98.30;;;;;;5071480;28;20044;-71
2022/05/04 11:07:02;;;;;;;10.00;2.67;;;;;;;;;;5055191;28;20410;-71
2022/05/04 11:09:43;;;;;;;5.50;2.63;;;14.10;96.70;;;;;;5055312;28;20041;-72
2022/05/04 11:12:11;;;;;;;8.15;2.67;;;14.10;97.90;;;;;;5048981;28;20075;-70
2022/05/04 11:14:37;;;;;;;8.63;2.83;;;;;;;;;;5060024;28;20044;-71
2022/05/04 11:17:10;;;;;;;9.20;2.92;;;14.10;96.30;;;;;;5089257;28;20039;-72
2022/05/04 11:19:40;;;;;;;6.77;2.50;;;13.80;96.90;;;;;;5064698;28;20036;-71
2022/05/04 11:22:08;;;;;;;9.00;3.03;;;14.30;97.20;;;;;;5059728;28;20033;-71
2022/05/04 11:24:34;;;;;;;6.07;2.90;;;14.20;97.70;;;;;;5054467;28;20063;-71
2022/05/04 11:26:59;;;;;;;5.82;2.35;;;14.30;98.00;;;;;;5054652;28;20490;-72
2022/05/04 11:29:27;;;;;;;8.38;2.75;;;14.40;97.90;;;;;;5071512;28;20040;-71
2022/05/04 11:32:01;;;;;;;10.68;3.47;;;14.20;97.60;;;;;;5076433;28;20047;-71
2022/05/04 11:34:32;;;;;;;7.93;3.20;;;14.60;97.80;;;;;;5083549;28;20406;-71
2022/05/04 11:37:02;;;;;;;7.43;2.75;;;14.50;97.60;;;;;;5054610;28;20478;-71
2022/05/04 11:39:29;;;;;;;6.63;2.70;;;14.60;97.50;;;;;;5069083;28;20159;-71
2022/05/04 11:41:57;;;;;;;9.65;2.95;;;14.30;97.50;;;;;;5071748;28;20383;-71
2022/05/04 11:44:24;;;;;;;10.32;2.92;;;14.20;97.80;;;;;;5037575;28;20048;-71
2022/05/04 11:46:51;;;;;;;7.03;2.80;;;14.30;97.80;;;;;;5037305;28;20064;-71
2022/05/04 11:49:19;;;;;;;10.57;3.53;;;14.10;97.50;;;;;;5053494;28;20135;-71
2022/05/04 11:51:45;;;;;;;11.55;2.97;;;14.10;97.60;;;;;;5054310;28;20423;-71
2022/05/04 11:54:12;;;;;;;8.75;3.08;;;14.30;97.00;;;;;;5071872;28;20534;-71
2022/05/04 11:56:37;;;;;;;9.52;3.85;;;14.20;97.20;;;;;;5054125;28;20379;-71
2022/05/04 11:59:05;;;;;;;11.57;3.70;;;14.70;97.40;;;;;;5053394;28;20036;-72
2022/05/04 12:01:30;;;;;;;8.02;3.45;;;15.10;98.00;;;;;;5037466;28;20048;-71
2022/05/04 12:03:56;;;;;;;6.65;2.72;;;14.90;97.30;;;;;;5071694;28;20081;-71
2022/05/04 12:06:23;;;;;;;7.63;2.90;;;14.70;97.20;;;;;;5073981;28;20044;-71
2022/05/04 12:08:49;;;;;;;14.15;3.15;;;15.20;97.00;;;;;;5092084;28;20043;-71
2022/05/04 12:11:16;;;;;;;8.20;3.17;;;15.10;96.80;;;;;;5073342;28;20082;-71
2022/05/04 12:13:43;;;;;;;9.55;3.08;;;15.10;96.30;;;;;;5083939;28;20028;-71
2022/05/04 12:16:10;;;;;;;8.07;3.15;;;15.00;96.50;;;;;;5036845;28;20048;-71
2022/05/04 12:18:38;;;;;;;7.47;2.58;;;14.90;96.30;;;;;;5071333;28;20051;-71
2022/05/04 12:21:11;;;;;;;12.50;4.45;;;14.90;96.40;;;;;;5052999;28;20047;-70
2022/05/04 12:23:42;;;;;;;11.68;4.55;;;14.70;96.40;;;;;;5053405;28;20036;-70
2022/05/04 12:26:10;;;;;;;13.23;3.40;;;15.10;97.10;;;;;;5055807;28;20037;-70
2022/05/04 12:28:37;;;;;;;9.50;3.47;;;15.10;96.70;;;;;;5053844;28;20131;-70
2022/05/04 12:33:48;;;;;;;7.45;3.08;;;15.40;96.50;;;;;;5053051;28;20048;-70
2022/05/04 12:36:17;;;;;;;8.20;2.58;;;15.60;96.30;;;;;;5052908;28;20044;-70
2022/05/04 12:38:46;;;;;;;11.73;4.20;;;15.50;96.40;;;;;;5052712;28;20123;-68
2022/05/04 12:41:12;;;;;;;12.18;3.90;;;15.20;97.40;;;;;;5051756;28;20120;-70
2022/05/04 12:43:39;;;;;;;10.32;3.45;;;15.30;96.50;;;;;;5057751;28;20041;-71
2022/05/04 12:46:09;;;;;;;7.05;2.83;;;15.40;97.80;;;;;;5052788;28;20537;-70
2022/05/04 12:48:38;;;;;;;10.20;3.28;;;15.30;96.60;;;;;;5037160;28;20082;-71
2022/05/04 12:51:04;;;;;;;9.82;3.03;;;15.10;96.20;;;;;;5035245;28;20177;-71
2022/05/04 12:53:30;;;;;;;7.13;3.20;;;15.20;96.70;;;;;;5070897;28;20119;-71
2022/05/04 12:58:40;;;;;;;9.45;3.40;;;15.50;97.20;;;;;;5052693;28;20044;-71
2022/05/04 13:01:07;;;;;;;8.68;3.65;;;15.50;97.60;;;;;;5070291;28;20033;-70
2022/05/04 13:03:33;;;;;;;7.75;3.67;;;15.20;96.70;;;;;;5036320;28;20067;-71
2022/05/04 13:05:59;;;;;;;8.68;3.63;;;15.40;96.10;;;;;;5070165;28;20037;-71
2022/05/04 13:08:25;;;;;;;8.10;3.72;;;15.50;96.30;;;;;;5035884;28;20040;-71
2022/05/04 13:10:51;;;;;;;8.30;4.60;;;15.50;96.00;;;;;;5034910;28;20098;-71
2022/05/04 13:13:19;;;;;;;7.28;3.88;;;15.50;96.40;;;;;;5052079;28;20040;-71
2022/05/04 13:15:52;;;;;;;7.85;3.30;;;15.70;96.30;;;;;;5051505;28;20045;-71
2022/05/04 13:18:19;;;;;;;9.60;3.70;;;15.50;95.60;;;;;;5071184;28;20041;-71
2022/05/04 13:20:45;;;;;;;9.90;4.25;;;16.00;96.60;;;;;;5070561;28;20048;-72
2022/05/04 13:23:10;;;;;;;9.05;3.50;;;16.20;96.20;;;;;;5053206;28;20040;-71
2022/05/04 13:25:36;;;;;;;5.85;3.42;;;16.10;95.80;;;;;;5039429;28;20544;-71
2022/05/04 13:28:02;;;;;;;5.60;3.38;;;16.00;96.00;;;;;;5071456;28;20482;-71
2022/05/04 13:30:28;;;;;;;10.52;3.80;;;15.70;95.80;;;;;;5035648;28;20464;-68
2022/05/04 13:32:54;;;;;;;8.85;3.65;;;16.00;96.20;;;;;;5053720;28;20037;-71
2022/05/04 13:35:21;;;;;;;10.05;3.30;;;16.20;96.60;;;;;;5070972;28;20041;-71
2022/05/04 13:37:47;;;;;;;8.98;3.67;;;16.20;96.20;;;;;;5053019;28;20106;-71
2022/05/04 13:40:13;;;;;;;10.50;4.22;;;15.90;95.80;;;;;;5052579;28;20493;-70
2022/05/04 13:42:42;;;;;;;10.73;3.70;;;16.00;95.80;;;;;;5053252;28;20047;-71
2022/05/04 13:45:09;;;;;;;7.75;4.25;;;16.10;97.30;;;;;;5070865;28;20037;-72
2022/05/04 13:47:39;;;;;;;7.50;3.85;;;16.10;95.90;;;;;;5039868;28;20035;-71
2022/05/04 13:53:13;;;;;;;12.50;3.78;;;15.80;95.90;;;;;;5068965;28;20040;-74
2022/05/04 13:53:37;;;;;;;10.68;3.95;;;15.90;96.20;;;;;;5070683;28;20444;-71
2022/05/04 13:55:38;;;;;;;10.73;4.32;;;16.00;96.10;;;;;;5067019;28;20116;-71
2022/05/04 13:58:04;;;;;;;8.02;3.33;;;16.10;96.20;;;;;;5073931;28;20036;-71
2022/05/04 14:00:30;;;;;;;7.95;4.13;;;16.20;96.30;;;;;;5046955;28;20403;-71
2022/05/04 14:02:55;;;;;;;7.38;3.83;;;16.30;96.30;;;;;;5079742;28;20490;-68
2022/05/04 14:05:21;;;;;;;8.52;3.85;;;16.50;96.00;;;;;;5040160;28;20037;-71
2022/05/04 14:07:48;;;;;;;8.43;3.95;;;16.30;96.30;;;;;;5056890;28;20041;-71
2022/05/04 14:10:14;;;;;;;9.23;3.95;;;16.30;96.40;;;;;;5055856;28;20116;-71